Time;durP1;ratioP1;P1;durP2;ratioP2;P2;SDS_P1;SDS_P2;PMS_P1;PMS_P2;Temp;Humidity;BMP_temperature;BMP_pressure;BME280_temperature;BME280_humidity;BME280_pressure;Samples;Min_cycle;Max_cycle;Signal;HPM_P1;HPM_P2
2024/01/09 00:01:23;;;;;;;3.30;2.20;;;;;;;0.88;66.40;101888.31;5037914;28;20045;-49
2024/01/09 00:03:50;;;;;;;5.68;1.30;;;;;;;0.87;67.49;101882.31;5032657;28;20084;-49
2024/01/09 00:06:19;;;;;;;3.13;2.85;;;;;;;0.95;66.65;101898.13;5039670;28;20049;-47
2024/01/09 00:08:46;;;;;;;2.72;1.83;;;;;;;0.83;67.54;101890.53;5045379;28;20045;-46
2024/01/09 00:11:14;;;;;;;3.22;1.85;;;;;;;0.90;66.78;101886.72;5037082;28;20061;-48
2024/01/09 00:13:42;;;;;;;6.07;0.85;;;;;;;0.88;67.34;101894.28;5036638;28;20619;-50
2024/01/09 00:16:08;;;;;;;3.92;2.88;;;;;;;0.85;67.33;101891.50;5036136;28;20041;-41
2024/01/09 00:18:35;;;;;;;6.80;2.60;;;;;;;0.91;67.38;101888.50;5036856;28;20052;-48
2024/01/09 00:21:02;;;;;;;5.78;2.58;;;;;;;0.89;67.78;101883.31;5032041;28;20545;-45
2024/01/09 00:23:29;;;;;;;2.15;1.95;;;;;;;0.89;66.86;101880.75;5036192;28;20050;-53
2024/01/09 00:25:56;;;;;;;4.88;1.98;;;;;;;0.92;66.64;101871.53;5037852;28;20391;-42
2024/01/09 00:28:23;;;;;;;4.22;2.22;;;;;;;0.94;66.24;101878.50;5038769;28;20136;-53
2024/01/09 00:30:50;;;;;;;6.05;1.15;;;;;;;0.95;67.36;101893.00;5036654;28;20050;-52
2024/01/09 00:33:17;;;;;;;6.22;1.35;;;;;;;0.95;66.74;101875.16;5043386;28;20076;-54
2024/01/09 00:35:44;;;;;;;3.35;3.00;;;;;;;0.88;66.74;101871.31;5044826;28;20049;-49
2024/01/09 00:38:11;;;;;;;2.33;1.90;;;;;;;0.92;67.37;101880.06;5042997;28;20052;-43
2024/01/09 00:40:39;;;;;;;2.53;0.80;;;;;;;0.91;66.15;101870.63;5042591;28;20560;-49
2024/01/09 00:43:07;;;;;;;7.07;2.55;;;;;;;0.92;66.82;101869.88;5043402;28;20120;-48
2024/01/09 00:45:34;;;;;;;3.67;1.05;;;;;;;0.91;66.49;101868.06;5040560;28;20057;-51
2024/01/09 00:48:05;;;;;;;3.08;2.25;;;;;;;0.92;66.93;101859.66;5043232;28;20055;-46
2024/01/09 00:50:33;;;;;;;2.08;0.80;;;;;;;0.85;65.92;101862.59;5041542;28;20048;-50
2024/01/09 00:53:00;;;;;;;3.67;2.83;;;;;;;0.83;66.89;101859.03;5048603;28;20698;-51
2024/01/09 00:55:27;;;;;;;3.33;1.85;;;;;;;0.82;66.10;101858.16;5036766;28;20041;-44
2024/01/09 00:57:54;;;;;;;2.65;1.15;;;;;;;0.87;66.18;101861.00;5044183;28;20049;-48
2024/01/09 01:00:21;;;;;;;4.28;3.17;;;;;;;0.84;66.84;101856.59;5041107;28;20048;-50
2024/01/09 01:02:48;;;;;;;1.77;0.57;;;;;;;0.82;66.80;101857.28;5038408;28;20133;-52
2024/01/09 01:05:15;;;;;;;3.72;3.10;;;;;;;0.80;66.95;101853.72;5037317;28;20048;-43
2024/01/09 01:07:44;;;;;;;4.43;2.95;;;;;;;0.81;67.24;101860.63;5048064;28;20425;-49
2024/01/09 01:10:13;;;;;;;3.85;2.53;;;;;;;0.76;66.78;101839.91;5047320;28;20141;-48
2024/01/09 01:12:46;;;;;;;1.65;0.68;;;;;;;0.74;66.26;101855.09;5043203;28;20072;-49
2024/01/09 01:15:14;;;;;;;5.85;2.53;;;;;;;0.66;66.25;101850.25;5049072;28;20505;-51
2024/01/09 01:17:44;;;;;;;2.17;2.00;;;;;;;0.69;66.71;101853.91;5047281;28;20486;-54
2024/01/09 01:20:12;;;;;;;6.32;3.08;;;;;;;0.62;67.02;101849.19;5049999;28;20064;-50
2024/01/09 01:22:40;;;;;;;3.08;2.08;;;;;;;0.63;66.30;101851.84;5042727;28;20525;-43
2024/01/09 01:25:09;;;;;;;3.95;0.90;;;;;;;0.60;66.48;101841.41;5040847;28;20517;-44
2024/01/09 01:27:36;;;;;;;6.28;1.67;;;;;;;0.62;66.63;101852.63;5046614;28;20053;-44
2024/01/09 01:30:04;;;;;;;2.00;1.70;;;;;;;0.62;66.45;101846.63;5048851;28;20053;-43
2024/01/09 01:32:34;;;;;;;4.90;2.47;;;;;;;0.62;67.37;101849.19;5042447;28;20128;-47
2024/01/09 01:35:02;;;;;;;3.30;2.58;;;;;;;0.60;67.46;101845.63;5048450;28;20084;-46
2024/01/09 01:37:30;;;;;;;6.13;2.47;;;;;;;0.58;67.49;101842.97;5045033;28;20053;-48
2024/01/09 01:39:59;;;;;;;3.97;2.60;;;;;;;0.56;66.65;101843.66;5034682;28;20064;-47
2024/01/09 01:42:26;;;;;;;3.90;2.08;;;;;;;0.55;67.62;101841.91;5037493;28;20089;-46
2024/01/09 01:44:54;;;;;;;2.05;0.32;;;;;;;0.43;67.61;101845.38;5041261;28;20051;-41
2024/01/09 01:47:21;;;;;;;7.20;2.10;;;;;;;0.49;67.64;101842.38;5047201;28;20489;-47
2024/01/09 01:49:49;;;;;;;4.68;1.83;;;;;;;0.42;67.92;101846.16;5042016;28;20103;-52
2024/01/09 01:52:17;;;;;;;2.53;1.60;;;;;;;0.43;67.84;101835.19;5045984;28;20055;-49
2024/01/09 01:54:44;;;;;;;3.65;1.00;;;;;;;0.40;68.10;101847.72;5047576;28;20048;-46
2024/01/09 01:57:11;;;;;;;2.20;0.68;;;;;;;0.39;68.00;101845.97;5040383;28;20056;-49
2024/01/09 01:59:42;;;;;;;2.70;2.20;;;;;;;0.34;68.49;101842.22;5036403;28;20053;-50
2024/01/09 02:02:13;;;;;;;3.35;2.88;;;;;;;0.35;67.35;101839.78;5038629;28;20045;-43
2024/01/09 02:04:41;;;;;;;2.85;1.02;;;;;;;0.31;68.51;101847.09;5043571;28;20040;-50
2024/01/09 02:07:07;;;;;;;3.35;0.82;;;;;;;0.31;68.07;101842.00;5048396;28;20051;-49
2024/01/09 02:09:36;;;;;;;5.45;2.03;;;;;;;0.27;67.79;101843.44;5047480;28;20532;-50
2024/01/09 02:12:04;;;;;;;4.43;1.10;;;;;;;0.30;67.73;101853.00;5038477;28;20485;-42
2024/01/09 02:14:31;;;;;;;4.53;1.02;;;;;;;0.29;68.02;101844.44;5037788;28;20729;-49
2024/01/09 02:16:58;;;;;;;1.77;1.42;;;;;;;0.25;68.31;101843.38;5045149;28;20040;-51
2024/01/09 02:19:24;;;;;;;4.43;0.70;;;;;;;0.22;68.47;101848.25;5045692;28;20071;-40
2024/01/09 02:21:51;;;;;;;2.05;1.00;;;;;;;0.19;68.83;101845.47;5038984;28;20056;-43
2024/01/09 02:24:18;;;;;;;2.28;0.77;;;;;;;0.19;68.87;101848.03;5036619;28;20049;-41
2024/01/09 02:26:51;;;;;;;2.90;1.13;;;;;;;0.13;69.09;101845.03;5045989;28;20068;-45
2024/01/09 02:29:33;;;;;;;3.75;0.80;;;;;;;0.06;69.11;101837.75;5044591;28;20053;-44
2024/01/09 02:32:02;;;;;;;3.88;1.80;;;;;;;0.09;68.93;101845.63;5037330;28;20055;-45
2024/01/09 02:34:33;;;;;;;0.73;0.45;;;;;;;0.03;68.93;101845.22;5038818;28;20060;-42
2024/01/09 02:37:00;;;;;;;3.40;1.02;;;;;;;-0.01;69.58;101845.00;5045806;28;20068;-45
2024/01/09 02:39:29;;;;;;;2.65;2.42;;;;;;;-0.02;69.02;101849.97;5040992;28;20045;-45
2024/01/09 02:41:56;;;;;;;4.88;2.45;;;;;;;-0.08;69.83;101847.88;5039276;28;20088;-51
2024/01/09 02:44:23;;;;;;;5.80;2.47;;;;;;;-0.10;69.51;101844.31;5038245;28;20061;-45
2024/01/09 02:46:49;;;;;;;4.57;2.30;;;;;;;-0.08;69.16;101854.63;5044935;28;20041;-48
2024/01/09 02:49:16;;;;;;;5.03;2.95;;;;;;;-0.12;69.13;101845.91;5044206;28;20061;-43
2024/01/09 02:51:43;;;;;;;2.45;0.93;;;;;;;-0.11;69.79;101846.81;5043150;28;20852;-49
2024/01/09 02:54:09;;;;;;;2.35;2.15;;;;;;;-0.07;69.21;101844.56;5040772;28;20049;-54
2024/01/09 02:56:37;;;;;;;3.13;2.38;;;;;;;-0.11;69.79;101852.75;5044805;28;20635;-49
2024/01/09 02:59:04;;;;;;;4.10;2.92;;;;;;;-0.09;69.52;101851.22;5042267;28;20115;-46
2024/01/09 03:01:31;;;;;;;2.65;1.67;;;;;;;-0.15;69.57;101860.97;5035048;28;20493;-49
2024/01/09 03:03:57;;;;;;;3.15;0.90;;;;;;;-0.11;69.39;101862.94;5035725;28;20045;-44
2024/01/09 03:06:24;;;;;;;3.75;1.42;;;;;;;-0.12;69.81;101853.53;5037968;28;20061;-52
2024/01/09 03:08:51;;;;;;;3.70;0.88;;;;;;;-0.09;69.78;101851.22;5044946;28;20056;-43
2024/01/09 03:11:18;;;;;;;3.80;0.88;;;;;;;-0.08;69.40;101860.63;5035158;28;20571;-41
2024/01/09 03:13:45;;;;;;;2.65;1.08;;;;;;;-0.14;69.91;101853.44;5038233;28;20049;-50
2024/01/09 03:16:14;;;;;;;4.70;1.95;;;;;;;-0.13;69.31;101854.34;5040904;28;21110;-42
2024/01/09 03:18:41;;;;;;;2.85;2.60;;;;;;;-0.17;69.30;101847.25;5029744;28;20053;-41
2024/01/09 03:21:10;;;;;;;2.88;2.22;;;;;;;-0.14;69.59;101855.97;5042962;28;20052;-43
2024/01/09 03:23:37;;;;;;;4.85;0.90;;;;;;;-0.11;69.83;101852.75;5037917;28;20052;-48
2024/01/09 03:26:05;;;;;;;3.38;2.28;;;;;;;-0.08;69.58;101858.06;5033115;28;20071;-45
2024/01/09 03:28:32;;;;;;;2.38;1.27;;;;;;;-0.04;70.20;101864.25;5039281;28;20040;-46
2024/01/09 03:30:58;;;;;;;2.60;0.50;;;;;;;-0.03;70.09;101864.38;5042057;28;20048;-43
2024/01/09 03:33:25;;;;;;;1.73;0.60;;;;;;;-0.03;69.19;101859.28;5042971;28;20599;-42
2024/01/09 03:35:52;;;;;;;1.42;0.82;;;;;;;0.02;69.61;101858.69;5050589;28;20640;-46
2024/01/09 03:38:18;;;;;;;7.13;2.70;;;;;;;0.04;69.22;101854.63;5037137;28;20049;-46
2024/01/09 03:40:45;;;;;;;5.75;2.70;;;;;;;0.07;69.97;101853.16;5040496;28;20079;-45
2024/01/09 03:43:12;;;;;;;5.03;1.13;;;;;;;0.08;68.99;101839.66;5037587;28;20106;-46
2024/01/09 03:45:39;;;;;;;2.70;2.50;;;;;;;0.09;69.23;101840.53;5038575;28;20053;-49
2024/01/09 03:48:06;;;;;;;3.00;2.10;;;;;;;0.08;70.06;101843.84;5040038;28;20047;-52
2024/01/09 03:50:33;;;;;;;6.40;1.80;;;;;;;0.10;69.61;101842.31;5037292;28;20114;-43
2024/01/09 03:53:00;;;;;;;3.05;1.20;;;;;;;0.17;69.17;101841.06;5040014;28;20440;-42
2024/01/09 03:55:27;;;;;;;3.10;1.10;;;;;;;0.14;69.53;101841.75;5034769;28;20055;-47
2024/01/09 03:57:53;;;;;;;3.63;2.10;;;;;;;0.16;69.71;101836.75;5042256;28;20045;-41
2024/01/09 04:00:20;;;;;;;3.10;0.82;;;;;;;0.12;69.92;101831.44;5040364;28;20127;-47
2024/01/09 04:02:47;;;;;;;3.22;0.70;;;;;;;0.18;69.74;101836.06;5041345;28;20048;-45
2024/01/09 04:05:13;;;;;;;3.83;1.10;;;;;;;0.17;69.31;101839.38;5036619;28;20855;-51
2024/01/09 04:07:40;;;;;;;3.92;0.95;;;;;;;0.16;69.91;101837.63;5036631;28;20068;-44
2024/01/09 04:10:07;;;;;;;2.00;1.13;;;;;;;0.17;70.04;101829.19;5034183;28;20049;-50
2024/01/09 04:12:34;;;;;;;8.40;1.35;;;;;;;0.18;69.79;101836.06;5035434;28;20421;-46
2024/01/09 04:15:01;;;;;;;2.20;0.50;;;;;;;0.13;69.41;101842.50;5042861;28;20049;-43
2024/01/09 04:17:27;;;;;;;7.88;0.93;;;;;;;0.18;69.54;101841.16;5047632;28;20049;-42
2024/01/09 04:19:56;;;;;;;2.97;1.13;;;;;;;0.19;69.15;101832.75;5037121;28;20409;-43
2024/01/09 04:22:22;;;;;;;2.38;2.05;;;;;;;0.23;68.85;101833.81;5037470;28;20046;-46
2024/01/09 04:24:50;;;;;;;6.97;1.25;;;;;;;0.22;68.83;101843.16;5044749;28;20045;-46
2024/01/09 04:27:17;;;;;;;3.03;0.95;;;;;;;0.19;69.28;101842.03;5035961;28;20464;-47
2024/01/09 04:29:43;;;;;;;3.80;2.47;;;;;;;0.19;69.24;101836.94;5044222;28;20406;-44
2024/01/09 04:32:10;;;;;;;3.25;2.05;;;;;;;0.18;69.24;101838.63;5047597;28;20040;-45
2024/01/09 04:34:37;;;;;;;2.97;2.35;;;;;;;0.20;69.12;101829.41;5046262;28;20132;-51
2024/01/09 04:37:04;;;;;;;2.58;1.58;;;;;;;0.16;69.90;101835.06;5038318;28;20045;-45
2024/01/09 04:39:30;;;;;;;3.20;2.97;;;;;;;0.20;69.34;101824.31;5041967;28;20517;-48
2024/01/09 04:41:57;;;;;;;2.30;1.90;;;;;;;0.18;69.64;101833.53;5039052;28;20068;-40
2024/01/09 04:44:24;;;;;;;2.30;1.13;;;;;;;0.15;70.00;101833.31;5041941;28;20045;-49
2024/01/09 04:46:51;;;;;;;2.95;1.33;;;;;;;0.12;70.60;101828.00;5041385;28;20057;-51
2024/01/09 04:49:19;;;;;;;4.97;2.90;;;;;;;0.14;69.73;101829.00;5040723;28;20132;-42
2024/01/09 04:51:45;;;;;;;5.63;2.28;;;;;;;0.13;69.37;101837.41;5041962;28;20077;-47
2024/01/09 04:54:12;;;;;;;6.03;2.17;;;;;;;0.16;69.35;101827.44;5040340;28;20054;-49
2024/01/09 04:56:39;;;;;;;2.70;0.80;;;;;;;0.12;69.33;101830.53;5043584;28;20454;-47
2024/01/09 04:59:05;;;;;;;2.13;0.65;;;;;;;0.12;70.09;101838.19;5040109;28;20053;-45
2024/01/09 05:01:32;;;;;;;4.43;1.80;;;;;;;0.13;70.25;101842.50;5040677;28;20596;-49
2024/01/09 05:03:59;;;;;;;13.32;1.48;;;;;;;0.09;70.01;101840.53;5036933;28;20049;-46
2024/01/09 05:06:26;;;;;;;11.07;3.45;;;;;;;0.09;70.24;101841.41;5040117;28;20052;-42
2024/01/09 05:08:54;;;;;;;11.77;4.07;;;;;;;0.08;70.36;101838.75;5033140;28;20053;-48
2024/01/09 05:11:21;;;;;;;4.13;3.00;;;;;;;0.08;70.35;101838.75;5039376;28;20144;-49
2024/01/09 05:13:48;;;;;;;2.60;2.40;;;;;;;0.09;70.11;101840.53;5036505;28;20586;-50
2024/01/09 05:16:15;;;;;;;4.00;0.85;;;;;;;0.06;69.70;101835.22;5041311;28;20528;-40
2024/01/09 05:18:42;;;;;;;5.72;2.78;;;;;;;0.08;70.53;101838.75;5046126;28;20037;-44
2024/01/09 05:21:09;;;;;;;5.68;3.17;;;;;;;0.07;70.62;101837.00;5044343;28;20048;-46
2024/01/09 05:23:35;;;;;;;3.20;2.90;;;;;;;0.09;70.62;101835.41;5043454;28;20053;-50
2024/01/09 05:26:03;;;;;;;5.10;2.65;;;;;;;0.11;69.84;101836.44;5048169;28;20052;-45
2024/01/09 05:28:30;;;;;;;1.23;1.02;;;;;;;0.11;70.00;101838.97;5044840;28;20084;-46
2024/01/09 05:30:57;;;;;;;2.55;1.98;;;;;;;0.11;70.52;101838.97;5047542;28;20063;-45
2024/01/09 05:33:24;;;;;;;2.65;2.45;;;;;;;0.11;70.63;101838.97;5045234;28;20425;-48
2024/01/09 05:35:52;;;;;;;4.20;0.77;;;;;;;0.13;70.76;101839.94;5050956;28;20497;-46
2024/01/09 05:38:19;;;;;;;3.13;2.47;;;;;;;0.09;70.03;101851.59;5034281;28;20085;-43
2024/01/09 05:40:47;;;;;;;16.15;3.90;;;;;;;0.11;70.27;101844.06;5040319;28;20056;-40
2024/01/09 05:43:14;;;;;;;4.18;0.88;;;;;;;0.09;70.45;101833.78;5043736;28;20053;-46
2024/01/09 05:45:41;;;;;;;6.95;2.42;;;;;;;0.11;70.16;101849.16;5041132;28;20072;-44
2024/01/09 05:48:07;;;;;;;3.50;1.00;;;;;;;0.13;70.06;101847.59;5040412;28;20049;-45
2024/01/09 05:50:35;;;;;;;7.80;2.47;;;;;;;0.13;71.11;101852.69;5037730;28;20041;-43
2024/01/09 05:53:02;;;;;;;5.05;2.33;;;;;;;0.11;70.18;101854.25;5046441;28;20505;-44
2024/01/09 05:55:29;;;;;;;8.63;3.15;;;;;;;0.16;70.81;101849.50;5035404;28;20049;-47
2024/01/09 05:57:55;;;;;;;6.57;2.63;;;;;;;0.10;70.84;101848.28;5043947;28;20110;-44
2024/01/09 06:00:24;;;;;;;5.90;2.78;;;;;;;0.09;70.91;101850.72;5034220;28;20046;-43
2024/01/09 06:02:51;;;;;;;9.00;1.90;;;;;;;0.06;71.02;101850.50;5043261;28;20156;-52
2024/01/09 06:05:18;;;;;;;3.90;1.05;;;;;;;0.04;70.70;101842.78;5039413;28;20087;-46
2024/01/09 06:07:47;;;;;;;3.35;0.93;;;;;;;-0.02;70.91;101848.31;5041237;28;20049;-46
2024/01/09 06:10:14;;;;;;;3.72;2.35;;;;;;;-0.01;70.63;101842.44;5043773;28;20041;-44
2024/01/09 06:12:40;;;;;;;5.78;3.08;;;;;;;-0.05;70.57;101843.00;5047415;28;20076;-48
2024/01/09 06:15:10;;;;;;;3.25;1.95;;;;;;;-0.07;70.71;101839.44;5045044;28;20505;-47
2024/01/09 06:17:36;;;;;;;4.65;2.13;;;;;;;-0.10;70.56;101844.31;5040520;28;20410;-43
2024/01/09 06:20:04;;;;;;;4.63;2.50;;;;;;;-0.14;71.06;101852.53;5037859;28;20076;-48
2024/01/09 06:22:30;;;;;;;3.53;3.22;;;;;;;-0.14;70.97;101855.09;5037485;28;20494;-42
2024/01/09 06:24:57;;;;;;;6.13;2.75;;;;;;;-0.19;71.10;101854.78;5047729;28;20049;-42
2024/01/09 06:27:24;;;;;;;8.52;2.78;;;;;;;-0.21;71.00;101852.91;5041260;28;20624;-44
2024/01/09 06:29:51;;;;;;;5.65;2.58;;;;;;;-0.23;71.35;101857.00;5037054;28;20057;-42
2024/01/09 06:32:18;;;;;;;4.97;1.20;;;;;;;-0.26;71.19;101858.53;5037456;28;20057;-49
2024/01/09 06:34:45;;;;;;;2.45;1.02;;;;;;;-0.33;71.70;101850.38;5039515;28;20048;-45
2024/01/09 06:37:13;;;;;;;4.60;0.75;;;;;;;-0.34;71.48;101849.47;5038369;28;20049;-47
2024/01/09 06:39:40;;;;;;;6.85;2.47;;;;;;;-0.33;71.50;101851.25;5038892;28;20072;-45
2024/01/09 06:42:06;;;;;;;3.92;0.82;;;;;;;-0.36;71.96;101850.13;5035263;28;20067;-47
2024/01/09 06:44:33;;;;;;;6.18;1.23;;;;;;;-0.37;71.74;101851.81;5038104;28;20063;-49
2024/01/09 06:47:00;;;;;;;5.07;2.05;;;;;;;-0.42;71.74;101850.59;5038842;28;20041;-48
2024/01/09 06:49:28;;;;;;;2.63;2.05;;;;;;;-0.42;71.79;101860.78;5038235;28;20069;-49
2024/01/09 06:51:54;;;;;;;4.43;1.25;;;;;;;-0.45;72.26;101855.47;5039268;28;20053;-41
2024/01/09 06:54:21;;;;;;;6.47;2.35;;;;;;;-0.44;71.79;101862.34;5036957;28;20049;-49
2024/01/09 06:56:48;;;;;;;4.97;1.05;;;;;;;-0.44;71.90;101862.34;5040281;28;20048;-45
2024/01/09 06:59:15;;;;;;;4.00;3.53;;;;;;;-0.47;72.29;101862.13;5041403;28;20524;-43
2024/01/09 07:01:42;;;;;;;2.03;0.77;;;;;;;-0.48;71.90;101865.44;5035117;28;20136;-41
2024/01/09 07:04:10;;;;;;;4.28;2.70;;;;;;;-0.49;72.59;101861.09;5038284;28;20098;-42
2024/01/09 07:06:37;;;;;;;4.93;2.10;;;;;;;-0.49;72.15;101850.94;5036944;28;20052;-48
2024/01/09 07:09:04;;;;;;;8.20;0.60;;;;;;;-0.53;71.94;101855.78;5044258;28;20048;-42
2024/01/09 07:11:31;;;;;;;5.53;2.40;;;;;;;-0.54;72.04;101860.81;5044080;28;20060;-45
2024/01/09 07:13:58;;;;;;;5.60;2.58;;;;;;;-0.54;72.52;101860.81;5040034;28;20073;-45
2024/01/09 07:16:24;;;;;;;6.30;2.97;;;;;;;-0.56;72.29;101860.69;5032163;28;20061;-46
2024/01/09 07:18:51;;;;;;;4.32;2.80;;;;;;;-0.55;72.29;101862.44;5037134;28;20045;-49
2024/01/09 07:21:18;;;;;;;13.10;2.45;;;;;;;-0.53;72.53;101868.53;5036917;28;20147;-48
2024/01/09 07:23:46;;;;;;;5.75;1.75;;;;;;;-0.53;72.59;101868.53;5035375;28;20052;-41
2024/01/09 07:26:14;;;;;;;3.25;2.75;;;;;;;-0.50;72.94;101867.88;5041096;28;20060;-45
2024/01/09 07:28:42;;;;;;;1.20;0.70;;;;;;;-0.54;72.25;101864.22;5038124;28;20037;-47
2024/01/09 07:31:09;;;;;;;3.92;2.80;;;;;;;-0.52;72.77;101870.31;5041009;28;20052;-46
2024/01/09 07:33:36;;;;;;;6.13;2.92;;;;;;;-0.49;72.17;101873.84;5045699;28;20051;-47
2024/01/09 07:36:05;;;;;;;2.22;2.13;;;;;;;-0.54;72.23;101871.84;5046613;28;20072;-43
2024/01/09 07:38:35;;;;;;;4.03;2.35;;;;;;;-0.50;72.22;101869.53;5034865;28;20496;-49
2024/01/09 07:41:03;;;;;;;6.75;3.35;;;;;;;-0.48;72.11;101875.63;5038240;28;20072;-47
2024/01/09 07:43:30;;;;;;;3.30;1.98;;;;;;;-0.49;72.34;101873.84;5035787;28;20059;-44
2024/01/09 07:45:56;;;;;;;2.40;2.13;;;;;;;-0.47;71.98;101877.41;5036658;28;20764;-44
2024/01/09 07:48:23;;;;;;;4.82;2.60;;;;;;;-0.49;71.87;101878.94;5043889;28;20103;-43
2024/01/09 07:50:50;;;;;;;2.25;1.35;;;;;;;-0.45;72.05;101883.47;5042884;28;20048;-45
2024/01/09 07:53:17;;;;;;;4.43;1.20;;;;;;;-0.47;71.94;101887.56;5042924;28;20049;-47
2024/01/09 07:55:43;;;;;;;2.78;0.63;;;;;;;-0.50;72.03;101882.25;5048924;28;20834;-45
2024/01/09 07:58:12;;;;;;;3.03;2.80;;;;;;;-0.49;72.10;101879.81;5044217;28;20079;-48
2024/01/09 08:00:39;;;;;;;4.43;2.58;;;;;;;-0.47;72.34;101887.56;5043319;28;20107;-43
2024/01/09 08:03:06;;;;;;;4.93;1.95;;;;;;;-0.46;72.14;101880.06;5040238;28;20045;-40
2024/01/09 08:05:33;;;;;;;3.88;2.03;;;;;;;-0.44;72.31;101887.81;5043311;28;20072;-41
2024/01/09 08:08:00;;;;;;;2.25;2.05;;;;;;;-0.45;71.69;101884.38;5035212;28;20051;-48
2024/01/09 08:10:27;;;;;;;6.25;0.98;;;;;;;-0.47;71.76;101890.13;5039729;28;20509;-47
2024/01/09 08:12:54;;;;;;;2.40;1.20;;;;;;;-0.44;72.50;101887.81;5044539;28;20405;-43
2024/01/09 08:15:21;;;;;;;4.47;2.08;;;;;;;-0.42;71.71;101888.78;5041351;28;20056;-41
2024/01/09 08:17:47;;;;;;;9.73;1.25;;;;;;;-0.41;72.09;101891.44;5047465;28;20512;-43
2024/01/09 08:20:14;;;;;;;5.07;2.38;;;;;;;-0.38;71.88;101892.44;5047279;28;20052;-42
2024/01/09 08:22:41;;;;;;;5.70;0.93;;;;;;;-0.38;71.54;101893.31;5044653;28;20048;-47
2024/01/09 08:25:08;;;;;;;6.70;0.82;;;;;;;-0.34;71.68;101890.22;5044357;28;20045;-43
2024/01/09 08:27:37;;;;;;;4.72;2.03;;;;;;;-0.31;71.74;101894.63;5042256;28;20073;-44
2024/01/09 08:30:04;;;;;;;3.08;1.20;;;;;;;-0.25;71.86;101895.09;5040951;28;20049;-47
2024/01/09 08:32:31;;;;;;;1.63;1.48;;;;;;;-0.21;71.91;101896.22;5046294;28;20063;-46
2024/01/09 08:35:00;;;;;;;1.13;0.45;;;;;;;-0.12;71.59;101891.75;5042013;28;20049;-46
2024/01/09 08:37:27;;;;;;;4.88;1.75;;;;;;;0.04;71.62;101890.28;5041525;28;20410;-47
2024/01/09 08:39:54;;;;;;;1.88;0.82;;;;;;;0.13;71.19;101893.47;5041358;28;20045;-48
2024/01/09 08:42:22;;;;;;;2.83;0.93;;;;;;;0.20;71.05;101890.56;5039272;28;20060;-44
2024/01/09 08:44:49;;;;;;;3.15;0.50;;;;;;;0.38;70.78;101885.00;5037332;28;20071;-51
2024/01/09 08:47:17;;;;;;;2.33;0.88;;;;;;;0.59;71.02;101897.41;5045205;28;20122;-44
2024/01/09 08:49:44;;;;;;;6.07;2.55;;;;;;;0.70;69.80;101893.94;5043997;28;20041;-47
2024/01/09 08:52:10;;;;;;;3.65;2.00;;;;;;;0.94;70.17;101891.25;5040285;28;20057;-45
2024/01/09 08:54:38;;;;;;;2.97;2.00;;;;;;;1.36;69.95;101890.53;5041342;28;20045;-48
2024/01/09 08:57:05;;;;;;;13.05;2.58;;;;;;;1.60;69.50;101903.13;5031786;28;20442;-46
2024/01/09 08:59:32;;;;;;;2.92;1.80;;;;;;;1.88;68.57;101898.09;5043919;28;20049;-45
2024/01/09 09:01:58;;;;;;;11.35;3.05;;;;;;;2.15;66.35;101900.59;5041364;28;20127;-42
2024/01/09 09:04:25;;;;;;;2.47;1.88;;;;;;;2.38;67.46;101908.81;5040230;28;20058;-43
2024/01/09 09:06:52;;;;;;;7.78;2.35;;;;;;;2.55;66.84;101912.38;5041923;28;20052;-45
2024/01/09 09:09:19;;;;;;;4.20;1.63;;;;;;;2.83;66.66;101914.03;5036542;28;20077;-45
2024/01/09 09:11:45;;;;;;;4.30;1.75;;;;;;;3.28;65.75;101913.16;5039344;28;20559;-44
2024/01/09 09:14:12;;;;;;;1.70;1.52;;;;;;;3.79;65.75;101919.38;5037799;28;20052;-41
2024/01/09 09:16:41;;;;;;;4.18;2.03;;;;;;;4.23;63.65;101917.47;5044236;28;20063;-45
2024/01/09 09:19:09;;;;;;;3.92;1.90;;;;;;;4.71;62.87;101911.38;5039607;28;20060;-43
2024/01/09 09:21:36;;;;;;;5.60;2.97;;;;;;;5.17;62.78;101919.66;5040463;28;20056;-46
2024/01/09 09:24:03;;;;;;;1.92;1.67;;;;;;;5.66;62.48;101911.78;5042566;28;20049;-48
2024/01/09 09:26:32;;;;;;;8.88;2.70;;;;;;;6.02;60.41;101909.97;5039981;28;20053;-44
2024/01/09 09:29:01;;;;;;;2.95;1.88;;;;;;;6.01;58.30;101908.22;5041596;28;20063;-49
2024/01/09 09:31:45;;;;;;;5.10;2.03;;;;;;;6.08;60.09;101907.69;5039460;28;20064;-44
2024/01/09 09:34:12;;;;;;;4.53;1.65;;;;;;;6.39;59.71;101916.81;5035160;28;20433;-42
2024/01/09 09:36:39;;;;;;;3.38;2.28;;;;;;;6.75;59.03;101914.94;5036240;28;20433;-41
2024/01/09 09:39:05;;;;;;;3.15;2.33;;;;;;;7.15;57.82;101921.75;5039937;28;20521;-52
2024/01/09 09:41:36;;;;;;;5.68;3.65;;;;;;;7.66;57.04;101910.03;5039882;28;20128;-46
2024/01/09 09:44:06;;;;;;;5.55;3.00;;;;;;;8.05;55.68;101918.38;5041620;28;20049;-49
2024/01/09 09:46:34;;;;;;;2.35;2.17;;;;;;;8.44;54.51;101918.09;5043513;28;20049;-46
2024/01/09 09:49:03;;;;;;;3.78;2.35;;;;;;;8.69;54.12;101919.00;5043051;28;20041;-45
2024/01/09 09:51:30;;;;;;;3.42;2.72;;;;;;;9.10;54.76;101915.19;5037767;28;20057;-46
2024/01/09 09:53:57;;;;;;;3.83;2.72;;;;;;;9.37;53.67;101932.44;5034580;28;20144;-46
2024/01/09 09:56:25;;;;;;;4.05;1.88;;;;;;;9.80;53.42;101924.28;5040497;28;20041;-50
2024/01/09 09:58:51;;;;;;;5.35;2.03;;;;;;;10.20;53.30;101932.38;5034549;28;20124;-44
2024/01/09 10:01:22;;;;;;;4.07;2.20;;;;;;;10.51;51.42;101931.56;5038406;28;20076;-46
2024/01/09 10:03:55;;;;;;;4.22;2.03;;;;;;;10.59;50.59;101924.00;5036815;28;20058;-49
2024/01/09 10:06:22;;;;;;;7.65;2.85;;;;;;;10.71;50.58;101928.63;5037298;28;20046;-47
2024/01/09 10:08:53;;;;;;;3.83;1.15;;;;;;;10.90;48.88;101940.38;5034905;28;20459;-43
2024/01/09 10:11:20;;;;;;;5.78;1.48;;;;;;;11.10;49.80;101929.66;5040419;28;20479;-43
2024/01/09 10:13:47;;;;;;;5.28;2.08;;;;;;;11.11;47.86;101939.19;5039038;28;20575;-44
2024/01/09 10:16:14;;;;;;;3.85;0.50;;;;;;;11.34;48.35;101935.44;5039515;28;20425;-51
2024/01/09 10:18:40;;;;;;;9.85;2.83;;;;;;;11.28;47.86;101941.34;5037165;28;20068;-46
2024/01/09 10:21:07;;;;;;;4.68;2.60;;;;;;;11.54;48.73;101944.56;5039955;28;20139;-48
2024/01/09 10:23:39;;;;;;;6.47;2.72;;;;;;;11.69;47.74;101943.19;5042031;28;20556;-46
2024/01/09 10:26:13;;;;;;;4.78;2.78;;;;;;;11.83;47.23;101936.56;5040115;28;20132;-50
2024/01/09 10:28:41;;;;;;;5.38;3.33;;;;;;;11.78;45.81;101934.69;5038512;28;20049;-44
2024/01/09 10:31:08;;;;;;;4.22;3.08;;;;;;;11.83;45.90;101936.56;5038778;28;20052;-50
2024/01/09 10:33:40;;;;;;;4.43;2.10;;;;;;;11.80;45.64;101926.13;5038687;28;20044;-45
2024/01/09 10:36:08;;;;;;;4.50;2.92;;;;;;;11.77;43.18;101927.75;5038472;28;20505;-46
2024/01/09 10:38:35;;;;;;;4.60;2.28;;;;;;;11.98;45.55;101929.06;5039335;28;20056;-47
2024/01/09 10:41:20;;;;;;;4.60;2.22;;;;;;;11.72;42.83;101926.78;5042405;28;20056;-47
2024/01/09 10:43:49;;;;;;;2.75;2.30;;;;;;;11.59;43.04;101933.41;5038121;28;20045;-44
2024/01/09 10:46:16;;;;;;;6.13;1.05;;;;;;;11.23;43.06;101922.16;5039012;28;20456;-47
2024/01/09 10:48:45;;;;;;;3.75;1.85;;;;;;;11.08;42.63;101933.06;5043407;28;20041;-53
2024/01/09 10:51:15;;;;;;;6.38;2.65;;;;;;;10.59;43.12;101917.94;5038115;28;20417;-53
2024/01/09 10:53:45;;;;;;;4.47;2.15;;;;;;;10.14;43.25;101922.72;5033563;28;20110;-49
2024/01/09 10:56:15;;;;;;;5.80;1.75;;;;;;;9.56;43.80;101922.72;5035894;28;20073;-45
2024/01/09 10:58:47;;;;;;;4.20;2.97;;;;;;;8.91;45.59;101914.56;5042344;28;20041;-51
2024/01/09 11:01:13;;;;;;;2.65;1.58;;;;;;;8.44;45.11;101918.09;5035451;28;20468;-47
2024/01/09 11:03:41;;;;;;;4.10;2.45;;;;;;;8.09;47.09;101915.09;5033254;28;20045;-50
2024/01/09 11:06:08;;;;;;;6.25;2.63;;;;;;;7.84;47.49;101914.16;5039607;28;20056;-47
2024/01/09 11:08:37;;;;;;;3.67;2.13;;;;;;;7.66;47.57;101907.44;5021591;28;20561;-53
2024/01/09 11:11:07;;;;;;;5.10;2.92;;;;;;;7.63;47.50;101920.22;5033196;28;20061;-42
2024/01/09 11:13:37;;;;;;;10.07;2.60;;;;;;;7.57;48.40;101920.00;5037468;28;20132;-46
2024/01/09 11:16:06;;;;;;;1.80;1.70;;;;;;;7.14;48.55;101914.84;5038472;28;20088;-48
2024/01/09 11:18:34;;;;;;;1.65;0.60;;;;;;;6.81;48.14;101904.88;5035050;28;20458;-48
2024/01/09 11:21:04;;;;;;;3.63;2.20;;;;;;;6.60;48.91;101921.16;5040648;28;20041;-49
2024/01/09 11:23:54;;;;;;;2.10;1.88;;;;;;;6.16;49.70;101908.94;5040212;28;20088;-43
2024/01/09 11:26:23;;;;;;;6.57;1.83;;;;;;;6.13;50.39;101908.81;5039122;28;20058;-44
2024/01/09 11:28:49;;;;;;;4.88;1.98;;;;;;;6.02;50.53;101907.41;5036751;28;20057;-51
2024/01/09 11:31:19;;;;;;;4.53;0.95;;;;;;;5.98;51.08;101908.06;5038049;28;20616;-52